Time;durP1;ratioP1;P1;durP2;ratioP2;P2;SDS_P1;SDS_P2;PMS_P1;PMS_P2;Temp;Humidity;BMP_temperature;BMP_pressure;BME280_temperature;BME280_humidity;BME280_pressure;Samples;Min_cycle;Max_cycle;Signal;HPM_P1;HPM_P2
2023/05/05 00:00:48;;;;;;;0.20;0.20;;;;;;;19.72;44.17;101057.03;5095043;28;20047;-44
2023/05/05 00:03:14;;;;;;;0.20;0.20;;;;;;;19.73;44.14;101058.69;5095668;28;20074;-48
2023/05/05 00:05:41;;;;;;;0.20;0.20;;;;;;;19.72;43.83;101065.31;5095144;28;20050;-45
2023/05/05 00:08:06;;;;;;;0.20;0.20;;;;;;;19.71;43.89;101064.50;5095769;28;20519;-46
2023/05/05 00:10:32;;;;;;;0.20;0.20;;;;;;;19.71;43.93;101061.75;5095148;28;20043;-45
2023/05/05 00:12:57;;;;;;;0.20;0.20;;;;;;;19.71;44.16;101058.97;5095595;28;20056;-46
2023/05/05 00:15:23;;;;;;;0.20;0.20;;;;;;;19.71;44.05;101061.75;5108221;28;20055;-46
2023/05/05 00:17:49;;;;;;;0.20;0.20;;;;;;;19.71;44.19;101058.16;5115928;28;20051;-45
2023/05/05 00:20:15;;;;;;;0.20;0.20;;;;;;;19.70;43.93;101060.09;5109024;28;20424;-45
2023/05/05 00:22:40;;;;;;;0.20;0.20;;;;;;;19.71;43.92;101063.69;5114731;28;20459;-46
2023/05/05 00:25:06;;;;;;;0.20;0.20;;;;;;;19.71;43.97;101061.75;5105445;28;20100;-44
2023/05/05 00:27:32;;;;;;;0.20;0.20;;;;;;;19.71;44.14;101075.56;5116165;28;20039;-45
2023/05/05 00:29:58;;;;;;;0.20;0.20;;;;;;;19.71;44.26;101070.03;5108994;28;20040;-44
2023/05/05 00:32:23;;;;;;;0.20;0.20;;;;;;;19.71;44.23;101064.50;5094937;28;20044;-49
2023/05/05 00:34:49;;;;;;;0.20;0.20;;;;;;;19.70;44.15;101071.16;5093954;28;20075;-46
2023/05/05 00:37:15;;;;;;;0.20;0.20;;;;;;;19.70;43.97;101071.16;5095224;28;20057;-46
2023/05/05 00:39:41;;;;;;;0.20;0.20;;;;;;;19.70;44.07;101062.84;5102250;28;20479;-45
2023/05/05 00:42:06;;;;;;;0.20;0.20;;;;;;;19.70;43.93;101068.38;5115451;28;20051;-46
2023/05/05 00:44:38;;;;;;;0.20;0.20;;;;;;;19.70;44.12;101065.63;5110047;28;20047;-46
2023/05/05 00:47:04;;;;;;;0.20;0.20;;;;;;;19.71;44.02;101064.50;5095828;28;20271;-44
2023/05/05 00:49:30;;;;;;;0.20;0.20;;;;;;;19.71;44.23;101060.91;5098034;28;20507;-45
2023/05/05 00:51:56;;;;;;;0.20;0.20;;;;;;;19.70;44.23;101065.63;5115352;27;20070;-47
2023/05/05 00:54:22;;;;;;;0.20;0.20;;;;;;;19.71;44.15;101063.69;5115101;28;20393;-45
2023/05/05 00:56:49;;;;;;;0.20;0.20;;;;;;;19.70;44.20;101065.63;5115667;28;20050;-47
2023/05/05 00:59:16;;;;;;;0.20;0.20;;;;;;;19.70;44.07;101064.78;5101170;27;20044;-45
2023/05/05 01:01:42;;;;;;;0.20;0.20;;;;;;;19.70;44.10;101065.63;5095901;28;20085;-45
2023/05/05 01:04:07;;;;;;;0.20;0.20;;;;;;;19.70;44.14;101065.63;5114769;28;20047;-45
2023/05/05 01:07:02;;;;;;;0.20;0.20;;;;;;;19.70;44.12;101076.66;5114828;28;20070;-44
2023/05/05 01:09:38;;;;;;;0.20;0.20;;;;;;;19.70;44.08;101073.09;5082226;28;20051;-45
2023/05/05 01:12:14;;;;;;;0.20;0.20;;;;;;;19.70;44.31;101071.16;5076406;28;20104;-48
2023/05/05 01:14:44;;;;;;;0.20;0.20;;;;;;;19.70;44.09;101078.63;5075429;28;20147;-45
2023/05/05 01:17:16;;;;;;;0.20;0.20;;;;;;;19.69;44.38;101075.03;5076007;28;20075;-46
2023/05/05 01:20:22;;;;;;;0.20;0.20;;;;;;;19.69;44.20;101075.03;5094316;28;20063;-43
2023/05/05 01:22:53;;;;;;;0.20;0.20;;;;;;;19.69;43.92;101071.41;5083624;28;20043;-44
2023/05/05 01:25:30;;;;;;;0.20;0.20;;;;;;;19.70;44.28;101075.84;5104029;28;20079;-44
2023/05/05 01:28:06;;;;;;;0.20;0.20;;;;;;;19.69;43.96;101076.94;5094602;28;20246;-47
2023/05/05 01:31:11;;;;;;;0.20;0.20;;;;;;;19.69;44.13;101072.25;5075913;28;20048;-45
2023/05/05 01:33:45;;;;;;;0.20;0.20;;;;;;;19.69;44.23;101068.66;5067760;28;20289;-44
2023/05/05 01:36:21;;;;;;;0.20;0.20;;;;;;;19.69;44.06;101074.16;5093587;28;20108;-44
2023/05/05 01:38:50;;;;;;;0.20;0.20;;;;;;;19.69;44.15;101071.41;5094499;28;20055;-46
2023/05/05 01:41:18;;;;;;;0.20;0.20;;;;;;;19.68;44.02;101070.59;5093971;28;20078;-45
2023/05/05 01:43:46;;;;;;;0.20;0.20;;;;;;;19.68;44.15;101067.81;5094144;28;20309;-46
2023/05/05 01:46:12;;;;;;;0.20;0.20;;;;;;;19.68;44.13;101072.53;5091599;28;20051;-45
2023/05/05 01:48:38;;;;;;;0.20;0.20;;;;;;;19.68;44.08;101076.09;5095459;28;20054;-44
2023/05/05 01:51:07;;;;;;;0.20;0.20;;;;;;;19.69;43.98;101076.94;5098679;28;20044;-45
2023/05/05 01:53:34;;;;;;;0.20;0.20;;;;;;;19.69;44.09;101079.69;5093877;28;20408;-47
2023/05/05 01:56:00;;;;;;;0.20;0.20;;;;;;;19.68;44.28;101078.06;5093037;28;20051;-45
2023/05/05 01:58:27;;;;;;;0.20;0.20;;;;;;;19.68;43.97;101091.88;5083056;28;20591;-48
2023/05/05 02:00:55;;;;;;;0.20;0.20;;;;;;;19.69;43.98;101097.13;5100424;28;20400;-44
2023/05/05 02:03:21;;;;;;;0.20;0.20;;;;;;;19.68;44.30;101097.38;5075546;28;20271;-45
2023/05/05 02:05:50;;;;;;;0.20;0.20;;;;;;;19.68;44.23;101100.16;5093395;28;20141;-46
2023/05/05 02:08:16;;;;;;;0.20;0.20;;;;;;;19.69;44.29;101104.56;5093993;28;20039;-46
2023/05/05 02:10:45;;;;;;;0.20;0.20;;;;;;;19.68;44.28;101102.91;5094358;28;20461;-46
2023/05/05 02:13:11;;;;;;;0.20;0.20;;;;;;;19.68;44.34;101100.16;5074686;28;20516;-46
2023/05/05 02:15:38;;;;;;;0.20;0.20;;;;;;;19.67;44.25;101110.38;5092790;28;20054;-45
2023/05/05 02:18:06;;;;;;;0.20;0.20;;;;;;;19.68;44.16;101112.03;5075586;28;20043;-44
2023/05/05 02:20:32;;;;;;;0.20;0.20;;;;;;;19.68;44.28;101112.03;5080085;28;20153;-45
2023/05/05 02:22:58;;;;;;;0.20;0.20;;;;;;;19.68;44.33;101114.78;5092783;28;20655;-47
2023/05/05 02:25:29;;;;;;;0.20;0.20;;;;;;;19.68;44.14;101122.25;5102051;28;20422;-48
2023/05/05 02:27:56;;;;;;;0.20;0.20;;;;;;;19.67;44.20;101115.91;5095546;28;20084;-46
2023/05/05 02:30:22;;;;;;;0.20;0.20;;;;;;;19.67;44.37;101123.38;5086261;28;20094;-45
2023/05/05 02:32:52;;;;;;;0.20;0.20;;;;;;;19.68;44.33;101114.78;5094113;28;20043;-45
2023/05/05 02:35:22;;;;;;;0.20;0.20;;;;;;;19.68;44.18;101113.97;5074553;28;20156;-44
2023/05/05 02:37:50;;;;;;;0.30;0.30;;;;;;;19.67;44.40;101117.84;5075335;28;20047;-44
2023/05/05 02:40:19;;;;;;;0.20;0.20;;;;;;;19.68;44.27;101125.03;5074934;28;20056;-45
2023/05/05 02:42:45;;;;;;;0.10;0.10;;;;;;;19.67;44.09;101117.84;5079357;28;20101;-47
2023/05/05 02:45:14;;;;;;;0.20;0.20;;;;;;;19.66;44.21;101118.97;5109976;28;20047;-45
2023/05/05 02:47:40;;;;;;;0.20;0.20;;;;;;;19.66;44.49;101130.84;5076437;28;20051;-44
2023/05/05 02:50:07;;;;;;;0.20;0.20;;;;;;;19.67;44.22;101120.59;5086950;28;20140;-46
2023/05/05 02:52:33;;;;;;;0.20;0.20;;;;;;;19.67;44.33;101132.47;5058745;28;20588;-45
2023/05/05 02:55:00;;;;;;;0.20;0.20;;;;;;;19.66;44.19;101114.25;5058815;28;20067;-46
2023/05/05 02:57:31;;;;;;;0.20;0.20;;;;;;;19.67;44.18;101129.72;5092832;27;20476;-44
2023/05/05 03:00:05;;;;;;;0.20;0.20;;;;;;;19.67;44.14;101131.66;5094433;28;20246;-49
2023/05/05 03:02:42;;;;;;;0.20;0.20;;;;;;;19.67;44.20;101124.19;5113933;28;20082;-48
2023/05/05 03:05:11;;;;;;;0.20;0.20;;;;;;;19.67;44.30;101131.66;5113042;28;20614;-47
2023/05/05 03:07:40;;;;;;;0.20;0.20;;;;;;;19.66;44.32;101128.06;5095049;28;20043;-43
2023/05/05 03:10:09;;;;;;;0.20;0.20;;;;;;;19.68;44.45;101130.53;5105957;28;20048;-45
2023/05/05 03:12:38;;;;;;;0.20;0.20;;;;;;;19.66;44.38;101122.53;5075033;28;20047;-44
2023/05/05 03:15:05;;;;;;;0.20;0.20;;;;;;;19.67;44.10;101126.13;5092500;28;20412;-47
2023/05/05 03:17:31;;;;;;;0.20;0.20;;;;;;;19.66;44.05;101136.38;5092163;28;20100;-44
2023/05/05 03:19:57;;;;;;;0.20;0.20;;;;;;;19.66;44.28;101130.84;5092582;28;20067;-44
2023/05/05 03:22:23;;;;;;;0.20;0.20;;;;;;;19.66;44.17;101132.78;5094349;28;20407;-45
2023/05/05 03:24:50;;;;;;;0.20;0.20;;;;;;;19.66;44.00;101128.06;5096806;28;20100;-46
2023/05/05 03:27:16;;;;;;;0.20;0.20;;;;;;;19.66;44.43;101128.06;5117010;28;20039;-45
2023/05/05 03:29:41;;;;;;;0.20;0.20;;;;;;;19.65;44.48;101131.94;5112665;28;20050;-44
2023/05/05 03:32:07;;;;;;;0.25;0.25;;;;;;;19.66;44.31;101132.78;5096321;28;20043;-48
2023/05/05 03:34:36;;;;;;;0.20;0.20;;;;;;;19.66;44.39;101127.25;5096573;28;20524;-45
2023/05/05 03:37:01;;;;;;;;;;;;;;;19.65;44.12;101120.91;5096591;28;20206;-46
2023/05/05 03:39:27;;;;;;;0.20;0.20;;;;;;;19.65;44.27;101118.13;5097783;28;20090;-49
2023/05/05 03:41:52;;;;;;;0.20;0.20;;;;;;;19.66;44.49;101121.72;5116208;28;20575;-44
2023/05/05 03:44:18;;;;;;;0.20;0.20;;;;;;;19.65;44.38;101133.88;5106643;28;20649;-45
2023/05/05 03:46:44;;;;;;;0.20;0.20;;;;;;;19.65;44.37;101133.88;5113092;28;20047;-47
2023/05/05 03:49:10;;;;;;;0.20;0.20;;;;;;;19.66;44.40;101130.84;5116564;28;20430;-45
2023/05/05 03:51:36;;;;;;;0.20;0.20;;;;;;;19.65;44.05;101128.38;5113567;28;20046;-47
2023/05/05 03:54:01;;;;;;;0.20;0.20;;;;;;;19.65;44.49;101134.72;5115869;28;20492;-45
2023/05/05 03:56:27;;;;;;;0.20;0.20;;;;;;;19.65;44.32;101133.88;5100627;28;20305;-44
2023/05/05 03:58:53;;;;;;;0.20;0.20;;;;;;;19.65;44.37;101137.47;5102892;28;20479;-46
2023/05/05 04:01:18;;;;;;;0.20;0.20;;;;;;;19.65;44.29;101139.41;5095406;28;20039;-46
2023/05/05 04:03:44;;;;;;;0.20;0.20;;;;;;;19.65;44.24;101139.41;5113470;28;20043;-48
2023/05/05 04:06:10;;;;;;;0.25;0.25;;;;;;;19.65;44.53;101154.06;5115415;28;20051;-46
2023/05/05 04:08:36;;;;;;;0.20;0.20;;;;;;;19.65;44.29;101151.28;5115740;28;20047;-48
2023/05/05 04:11:01;;;;;;;0.20;0.20;;;;;;;19.66;44.47;101152.94;5100048;28;20036;-44
2023/05/05 04:13:28;;;;;;;0.20;0.20;;;;;;;19.65;44.33;101161.53;5094890;28;20411;-47
2023/05/05 04:15:54;;;;;;;0.20;0.20;;;;;;;19.65;44.11;101167.88;5094837;28;20051;-44
2023/05/05 04:18:20;;;;;;;0.20;0.20;;;;;;;19.64;44.33;101171.72;5077139;28;20290;-44
2023/05/05 04:20:46;;;;;;;0.20;0.20;;;;;;;19.65;44.41;101176.16;5095348;28;20043;-45
2023/05/05 04:23:11;;;;;;;0.20;0.20;;;;;;;19.64;44.25;101177.25;5094581;28;20556;-46
2023/05/05 04:25:37;;;;;;;0.20;0.20;;;;;;;19.64;44.15;101171.72;5101566;28;20857;-46
2023/05/05 04:28:03;;;;;;;0.20;0.20;;;;;;;19.66;44.15;101176.97;5097642;28;20048;-45
2023/05/05 04:30:29;;;;;;;0.20;0.20;;;;;;;19.65;44.29;101184.44;5104907;28;20630;-44
2023/05/05 04:32:54;;;;;;;0.20;0.20;;;;;;;19.66;44.56;101177.81;5094953;28;20389;-46
2023/05/05 04:35:21;;;;;;;0.20;0.20;;;;;;;19.65;44.19;101181.69;5094730;28;20360;-46
2023/05/05 04:37:46;;;;;;;0.20;0.20;;;;;;;19.65;44.42;101187.22;5094635;28;20506;-45
2023/05/05 04:40:12;;;;;;;0.20;0.20;;;;;;;19.65;44.63;101187.22;5076628;28;20040;-45
2023/05/05 04:42:37;;;;;;;0.20;0.20;;;;;;;19.65;44.70;101186.38;5094788;28;20044;-44
2023/05/05 04:45:03;;;;;;;0.20;0.20;;;;;;;19.65;44.39;101176.16;5095889;28;20058;-46
2023/05/05 04:47:29;;;;;;;0.20;0.20;;;;;;;19.64;44.07;101180.00;5110559;28;20452;-45
2023/05/05 04:49:55;;;;;;;0.20;0.20;;;;;;;19.65;44.52;101187.22;5110220;28;20073;-44
2023/05/05 04:52:21;;;;;;;0.20;0.20;;;;;;;19.65;44.83;101189.97;5101525;28;20066;-44
2023/05/05 04:54:47;;;;;;;0.20;0.20;;;;;;;19.65;44.31;101189.16;5080296;28;20434;-46
2023/05/05 04:57:13;;;;;;;0.20;0.20;;;;;;;19.64;44.24;101187.47;5114698;28;20070;-44
2023/05/05 04:59:38;;;;;;;0.20;0.20;;;;;;;19.64;44.15;101180.00;5093681;28;20411;-46
2023/05/05 05:02:05;;;;;;;0.20;0.20;;;;;;;19.64;44.36;101184.72;5095036;28;20094;-46
2023/05/05 05:04:30;;;;;;;0.20;0.20;;;;;;;19.63;44.38;101185.81;5094723;28;20052;-44
2023/05/05 05:06:56;;;;;;;0.30;0.30;;;;;;;19.64;44.16;101193.00;5094986;28;20055;-47
2023/05/05 05:09:24;;;;;;;0.20;0.20;;;;;;;19.65;44.13;101202.97;5095298;28;20051;-47
2023/05/05 05:11:50;;;;;;;0.20;0.20;;;;;;;19.63;44.15;101196.88;5099067;28;20043;-46
2023/05/05 05:14:16;;;;;;;0.20;0.20;;;;;;;19.64;44.21;101215.91;5097420;28;20044;-46
2023/05/05 05:16:41;;;;;;;0.20;0.20;;;;;;;19.64;44.57;101204.88;5107472;28;20051;-46
2023/05/05 05:19:07;;;;;;;0.20;0.20;;;;;;;19.64;44.19;101215.09;5113400;28;20448;-44
2023/05/05 05:21:33;;;;;;;0.20;0.20;;;;;;;19.64;44.46;101218.69;5096383;28;20039;-45
2023/05/05 05:23:58;;;;;;;0.20;0.20;;;;;;;19.63;44.15;101214.28;5107232;28;20424;-44
2023/05/05 05:26:24;;;;;;;0.20;0.20;;;;;;;19.64;44.23;101212.34;5105225;28;20186;-49
2023/05/05 05:28:50;;;;;;;0.20;0.20;;;;;;;19.63;44.25;101222.56;5111916;28;20132;-44
2023/05/05 05:31:15;;;;;;;0.20;0.20;;;;;;;19.64;44.39;101210.41;5107865;28;20039;-45
2023/05/05 05:33:41;;;;;;;0.20;0.20;;;;;;;19.65;44.15;101222.31;5107137;28;20242;-45
2023/05/05 05:36:07;;;;;;;0.20;0.20;;;;;;;19.65;44.20;101223.13;5102358;28;20055;-45
2023/05/05 05:38:32;;;;;;;0.20;0.20;;;;;;;19.65;44.35;101217.59;5113588;28;20556;-45
2023/05/05 05:40:58;;;;;;;0.20;0.20;;;;;;;19.64;44.19;101221.44;5095936;28;20088;-47
2023/05/05 05:43:24;;;;;;;0.20;0.20;;;;;;;19.66;45.34;101213.72;5110216;28;20081;-42
2023/05/05 05:45:50;;;;;;;0.20;0.20;;;;;;;19.67;44.90;101225.59;5097673;28;20096;-44
2023/05/05 05:48:16;;;;;;;0.20;0.20;;;;;;;19.67;44.70;101223.66;5098715;27;20293;-45
2023/05/05 05:50:42;;;;;;;0.30;0.30;;;;;;;19.67;44.69;101228.38;5096207;28;20487;-46
2023/05/05 05:53:07;;;;;;;0.20;0.20;;;;;;;19.68;44.79;101222.56;5086362;28;20062;-45
2023/05/05 05:55:33;;;;;;;0.20;0.20;;;;;;;19.69;44.87;101231.66;5094194;27;20406;-45
2023/05/05 05:57:59;;;;;;;0.20;0.20;;;;;;;19.71;45.27;101240.53;5095350;28;20488;-45
2023/05/05 06:00:24;;;;;;;0.20;0.20;;;;;;;19.70;45.00;101236.13;5093939;28;20070;-43
2023/05/05 06:02:50;;;;;;;0.30;0.30;;;;;;;19.69;45.23;101231.66;5096572;28;20220;-47
2023/05/05 06:05:16;;;;;;;0.20;0.20;;;;;;;19.69;44.77;101240.81;5098262;28;20047;-45
2023/05/05 06:07:42;;;;;;;0.20;0.20;;;;;;;19.69;45.01;101234.44;5097473;28;20475;-44
2023/05/05 06:10:08;;;;;;;0.20;0.20;;;;;;;19.70;47.52;101230.59;5096453;28;20072;-45
2023/05/05 06:12:52;;;;;;;0.20;0.20;;;;;;;19.72;45.78;101233.88;5105092;28;20479;-45
2023/05/05 06:15:18;;;;;;;0.20;0.20;;;;;;;19.74;45.52;101227.00;5107388;28;20174;-47
2023/05/05 06:17:44;;;;;;;0.20;0.20;;;;;;;19.72;45.16;101225.59;5094226;28;20062;-45
2023/05/05 06:20:11;;;;;;;0.30;0.30;;;;;;;19.73;45.76;101227.25;5096982;28;20035;-45
2023/05/05 06:22:37;;;;;;;0.20;0.20;;;;;;;19.72;45.54;101215.38;5090729;28;20452;-45
2023/05/05 06:25:03;;;;;;;0.20;0.20;;;;;;;19.73;46.03;101230.88;5108782;28;20059;-46
2023/05/05 06:27:28;;;;;;;0.20;0.20;;;;;;;19.73;45.03;101218.97;5091746;28;20043;-44
2023/05/05 06:29:54;;;;;;;0.20;0.20;;;;;;;19.73;46.28;101221.72;5097017;28;20055;-44
2023/05/05 06:32:20;;;;;;;0.20;0.20;;;;;;;19.73;45.19;101224.47;5111878;27;20051;-44
2023/05/05 06:34:46;;;;;;;0.20;0.20;;;;;;;19.72;45.38;101218.13;5107484;28;20051;-44
2023/05/05 06:37:11;;;;;;;0.20;0.20;;;;;;;19.74;45.99;101227.00;5108015;28;20047;-44
2023/05/05 06:39:37;;;;;;;0.20;0.20;;;;;;;19.74;45.65;101232.50;5110749;28;20045;-44
2023/05/05 06:42:03;;;;;;;0.20;0.20;;;;;;;19.75;45.19;101238.88;5111871;28;20047;-45
2023/05/05 06:44:29;;;;;;;0.20;0.20;;;;;;;19.76;45.53;101240.53;5104693;28;20039;-44
2023/05/05 06:46:55;;;;;;;0.20;0.20;;;;;;;19.76;45.54;101244.09;5094609;28;20074;-46
2023/05/05 06:49:21;;;;;;;0.20;0.20;;;;;;;19.77;45.46;101247.69;5093809;27;20395;-44
2023/05/05 06:51:47;;;;;;;0.30;0.30;;;;;;;19.76;45.16;101248.81;5093229;28;20099;-44
2023/05/05 06:54:13;;;;;;;0.20;0.20;;;;;;;19.77;45.56;101251.31;5094070;28;20047;-45
2023/05/05 06:56:38;;;;;;;0.20;0.20;;;;;;;19.77;45.19;101259.59;5092686;27;20051;-45
2023/05/05 06:59:04;;;;;;;0.20;0.20;;;;;;;19.78;45.03;101269.53;5092958;27;20633;-45
2023/05/05 07:01:30;;;;;;;0.20;0.20;;;;;;;19.79;45.30;101262.91;5088780;27;20053;-44
2023/05/05 07:03:55;;;;;;;0.20;0.20;;;;;;;19.80;46.09;101270.09;5089960;28;20117;-44
2023/05/05 07:06:21;;;;;;;0.20;0.20;;;;;;;19.80;45.58;101269.25;5085551;28;20515;-45
2023/05/05 07:08:47;;;;;;;0.20;0.20;;;;;;;19.81;46.09;101270.91;5064734;28;20043;-44
2023/05/05 07:11:13;;;;;;;0.20;0.20;;;;;;;19.79;45.50;101268.44;5080393;27;20055;-47
2023/05/05 07:13:38;;;;;;;0.20;0.20;;;;;;;19.80;45.28;101270.09;5099605;27;20075;-46
2023/05/05 07:16:04;;;;;;;0.20;0.20;;;;;;;19.80;45.08;101266.50;5099373;28;20435;-45
2023/05/05 07:18:30;;;;;;;0.20;0.20;;;;;;;19.81;45.64;101270.91;5090516;27;20480;-44
2023/05/05 07:20:56;;;;;;;0.20;0.20;;;;;;;19.81;45.70;101276.44;5089422;27;20047;-44
2023/05/05 07:23:21;;;;;;;0.20;0.20;;;;;;;19.79;45.24;101268.44;5083767;27;20286;-45
2023/05/05 07:25:47;;;;;;;0.20;0.20;;;;;;;19.80;45.38;101274.78;5098156;27;20057;-45
2023/05/05 07:28:13;;;;;;;0.20;0.20;;;;;;;19.81;45.14;101273.66;5098035;28;20263;-46
2023/05/05 07:30:38;;;;;;;0.20;0.20;;;;;;;19.80;45.62;101280.31;5095345;27;20118;-44
2023/05/05 07:33:04;;;;;;;0.20;0.20;;;;;;;19.80;45.81;101280.31;5096070;27;20043;-44
2023/05/05 07:35:30;;;;;;;0.20;0.20;;;;;;;19.78;44.86;101280.59;5099434;27;20447;-46
2023/05/05 07:37:56;;;;;;;0.20;0.20;;;;;;;19.78;45.05;101283.38;5101986;27;20418;-46
2023/05/05 07:40:21;;;;;;;0.20;0.20;;;;;;;19.79;45.13;101286.94;5101293;28;20273;-44
2023/05/05 07:42:47;;;;;;;0.20;0.20;;;;;;;19.78;45.22;101283.38;5099155;28;20389;-46
2023/05/05 07:45:13;;;;;;;0.20;0.20;;;;;;;19.78;45.05;101288.88;5097974;27;20100;-45
2023/05/05 07:47:39;;;;;;;0.20;0.20;;;;;;;19.78;45.32;101293.59;5099832;28;20047;-48
2023/05/05 07:50:05;;;;;;;0.20;0.20;;;;;;;19.78;45.23;101290.84;5095564;27;20189;-46
2023/05/05 07:52:31;;;;;;;0.20;0.20;;;;;;;19.79;45.32;101286.94;5100612;27;20051;-45
2023/05/05 07:55:11;;;;;;;0.20;0.20;;;;;;;19.78;44.95;101283.38;5085402;27;20059;-48
2023/05/05 07:57:37;;;;;;;0.20;0.20;;;;;;;19.78;45.34;101282.53;5092349;28;20403;-45
2023/05/05 08:00:04;;;;;;;0.20;0.20;;;;;;;19.80;45.16;101285.84;5071197;28;20577;-44
2023/05/05 08:02:29;;;;;;;0.20;0.20;;;;;;;19.79;45.23;101281.44;5088418;27;20112;-45
2023/05/05 08:04:55;;;;;;;0.20;0.20;;;;;;;19.79;45.12;101281.44;5070443;28;20047;-45
2023/05/05 08:07:21;;;;;;;0.20;0.20;;;;;;;19.79;45.24;101286.94;5083056;27;20742;-49
2023/05/05 08:09:47;;;;;;;0.20;0.20;;;;;;;19.80;45.61;101285.84;5092006;27;20276;-44
2023/05/05 08:12:14;;;;;;;0.20;0.20;;;;;;;19.79;45.21;101287.78;5093287;27;20039;-44
2023/05/05 08:14:41;;;;;;;0.20;0.20;;;;;;;19.79;45.24;101285.00;5095067;27;20063;-45
2023/05/05 08:17:07;;;;;;;0.20;0.20;;;;;;;19.78;45.33;101288.06;5066043;28;20050;-45
2023/05/05 08:19:33;;;;;;;0.20;0.20;;;;;;;19.78;45.07;101288.88;5079377;28;20050;-44
2023/05/05 08:22:00;;;;;;;0.20;0.20;;;;;;;19.79;45.38;101287.78;5101452;28;20051;-44
2023/05/05 08:24:26;;;;;;;0.20;0.20;;;;;;;19.79;45.05;101281.44;5095340;28;20198;-43
2023/05/05 08:26:54;;;;;;;0.20;0.20;;;;;;;19.78;45.23;101280.59;5097697;28;20035;-44
2023/05/05 08:29:20;;;;;;;0.20;0.20;;;;;;;19.79;45.19;101284.19;5103526;28;20922;-44
2023/05/05 08:31:46;;;;;;;0.20;0.20;;;;;;;19.79;45.16;101284.19;5093260;27;20201;-44
2023/05/05 08:34:11;;;;;;;0.20;0.20;;;;;;;19.79;44.99;101275.91;5092234;27;20047;-44
2023/05/05 08:36:37;;;;;;;0.20;0.20;;;;;;;19.79;45.28;101281.44;5083079;28;20531;-44
2023/05/05 08:39:03;;;;;;;0.20;0.20;;;;;;;19.80;45.32;101278.38;5084653;27;20074;-45
2023/05/05 08:41:29;;;;;;;0.20;0.20;;;;;;;19.78;45.23;101280.59;5094506;28;20554;-46
2023/05/05 08:43:55;;;;;;;0.40;0.40;;;;;;;19.79;45.02;101281.44;5100332;28;20046;-45
2023/05/05 08:46:21;;;;;;;0.20;0.20;;;;;;;19.79;45.40;101281.44;5106646;28;20933;-45
2023/05/05 08:48:47;;;;;;;0.20;0.20;;;;;;;19.79;46.99;101284.19;5072215;28;20142;-45
2023/05/05 08:51:17;;;;;;;0.20;0.20;;;;;;;19.79;45.61;101285.00;5074746;28;20047;-45
2023/05/05 08:53:56;;;;;;;0.20;0.20;;;;;;;19.78;45.44;101286.13;5075272;28;20086;-44
2023/05/05 08:56:25;;;;;;;0.20;0.20;;;;;;;19.78;45.44;101288.88;5099459;28;20047;-45
2023/05/05 08:58:51;;;;;;;0.20;0.20;;;;;;;19.77;45.14;101287.25;5082229;28;20376;-47
2023/05/05 09:01:17;;;;;;;0.20;0.20;;;;;;;19.78;45.43;101282.53;5086548;28;20311;-46
2023/05/05 09:03:44;;;;;;;0.20;0.20;;;;;;;19.78;45.12;101279.78;5097601;27;20070;-46
2023/05/05 09:06:09;;;;;;;0.20;0.20;;;;;;;19.78;45.55;101282.53;5104695;27;20043;-45
2023/05/05 09:08:36;;;;;;;0.20;0.20;;;;;;;19.77;45.30;101286.38;5087610;28;20042;-44
2023/05/05 09:11:02;;;;;;;0.20;0.20;;;;;;;19.77;45.09;101294.66;5087662;28;20499;-44
2023/05/05 09:13:29;;;;;;;0.20;0.20;;;;;;;19.77;45.38;101295.53;5082930;28;20046;-45
2023/05/05 09:15:55;;;;;;;0.20;0.20;;;;;;;19.77;45.39;101297.44;5096845;28;20163;-46
2023/05/05 09:18:21;;;;;;;0.20;0.20;;;;;;;19.77;45.35;101291.91;5082247;28;20221;-44
2023/05/05 09:20:47;;;;;;;0.20;0.20;;;;;;;19.78;45.08;101296.34;5096476;28;20267;-44
2023/05/05 09:23:15;;;;;;;0.20;0.20;;;;;;;19.77;45.37;101290.00;5099344;27;20239;-47
2023/05/05 09:25:42;;;;;;;;;;;;;;;19.82;46.73;101293.84;5079465;28;20081;-46
2023/05/05 09:28:09;;;;;;;0.20;0.20;;;;;;;19.81;45.88;101281.97;5078279;28;19927;-45
2023/05/05 09:30:35;;;;;;;0.10;0.10;;;;;;;19.80;45.95;101285.84;5084553;28;20473;-44
2023/05/05 09:33:01;;;;;;;0.20;0.20;;;;;;;19.79;45.81;101281.44;5084541;28;20051;-46
2023/05/05 09:35:27;;;;;;;0.20;0.20;;;;;;;19.79;45.93;101285.00;5098795;27;20324;-45
2023/05/05 09:37:53;;;;;;;0.20;0.20;;;;;;;19.80;45.60;101283.91;5065865;28;20054;-44
2023/05/05 09:40:20;;;;;;;0.20;0.20;;;;;;;19.82;46.08;101282.78;5083486;28;20114;-48
2023/05/05 09:42:46;;;;;;;0.20;0.20;;;;;;;19.83;46.88;101284.47;5075604;28;20103;-42
2023/05/05 09:45:24;;;;;;;0.20;0.20;;;;;;;19.85;46.27;101279.47;5091227;28;20260;-44
2023/05/05 09:47:50;;;;;;;0.20;0.20;;;;;;;19.86;46.15;101282.00;5102533;28;20074;-45
2023/05/05 09:50:21;;;;;;;0.20;0.20;;;;;;;19.85;46.54;101283.06;5099363;28;20039;-44
2023/05/05 09:52:56;;;;;;;0.20;0.20;;;;;;;19.84;45.95;101284.19;5093832;27;20120;-47
2023/05/05 09:55:22;;;;;;;0.20;0.20;;;;;;;19.84;46.22;101278.66;5089454;27;20054;-44
2023/05/05 09:57:48;;;;;;;0.20;0.20;;;;;;;19.84;46.47;101281.41;5097413;28;20059;-44
2023/05/05 10:00:14;;;;;;;0.20;0.20;;;;;;;19.85;46.28;101274.78;5094622;28;20100;-46
2023/05/05 10:02:40;;;;;;;0.20;0.20;;;;;;;19.85;45.80;101274.78;5092208;27;20096;-44
2023/05/05 10:05:13;;;;;;;0.20;0.20;;;;;;;19.86;46.01;101270.94;5078821;28;20216;-46
2023/05/05 10:07:40;;;;;;;0.20;0.20;;;;;;;19.86;46.63;101264.56;5101284;28;20388;-46
2023/05/05 10:10:09;;;;;;;0.20;0.20;;;;;;;19.86;46.84;101259.88;5106027;28;20363;-48
2023/05/05 10:12:36;;;;;;;0.20;0.20;;;;;;;19.85;46.01;101260.97;5101239;28;20590;-45
2023/05/05 10:15:05;;;;;;;0.20;0.20;;;;;;;19.86;45.84;101251.59;5087592;28;20051;-45
2023/05/05 10:17:31;;;;;;;0.20;0.20;;;;;;;19.86;45.96;101253.50;5083007;28;20035;-44
2023/05/05 10:19:59;;;;;;;0.20;0.20;;;;;;;19.86;46.16;101257.13;5091099;28;20487;-46
2023/05/05 10:22:28;;;;;;;0.20;0.20;;;;;;;19.87;45.85;101244.13;5087415;28;20599;-46
2023/05/05 10:24:56;;;;;;;;;;;;;;;19.88;46.94;101240.25;5100063;28;20043;-45
2023/05/05 10:27:22;;;;;;;;;;;;;;;19.87;46.24;101233.06;5103420;28;20132;-45
2023/05/05 10:29:56;;;;;;;0.20;0.20;;;;;;;19.88;46.02;101231.94;5106421;27;19949;-47
2023/05/05 10:32:28;;;;;;;0.20;0.20;;;;;;;19.88;47.02;101229.19;5109181;28;20073;-45
2023/05/05 10:35:23;;;;;;;0.20;0.20;;;;;;;19.91;47.57;101225.88;5076134;28;20047;-45
2023/05/05 10:37:49;;;;;;;0.20;0.20;;;;;;;19.92;47.64;101228.34;5079522;27;20051;-45
2023/05/05 10:40:16;;;;;;;0.20;0.20;;;;;;;19.92;47.08;101228.34;5073220;28;20047;-44
2023/05/05 10:42:42;;;;;;;0.20;0.20;;;;;;;19.91;46.55;101223.94;5064043;28;20043;-46
2023/05/05 10:45:08;;;;;;;0.20;0.20;;;;;;;19.91;46.20;101225.88;5089642;28;20374;-45
2023/05/05 10:47:35;;;;;;;0.20;0.20;;;;;;;19.92;46.21;101238.56;5091961;28;20053;-45
2023/05/05 10:50:08;;;;;;;0.20;0.20;;;;;;;19.91;45.95;101228.63;5090384;28;20181;-47
2023/05/05 10:52:57;;;;;;;0.20;0.20;;;;;;;19.91;46.09;101223.09;5095320;27;20330;-46
2023/05/05 10:55:34;;;;;;;0.20;0.20;;;;;;;19.91;46.16;101223.94;5068745;28;20055;-47
2023/05/05 10:58:00;;;;;;;0.20;0.20;;;;;;;19.91;46.07;101223.94;5084414;28;20494;-46
2023/05/05 11:03:19;;;;;;;0.20;0.20;;;;;;;19.90;46.12;101216.72;5148815;27;20120;-43
2023/05/05 11:06:08;;;;;;;0.20;0.20;;;;;;;19.91;46.08;101214.81;5116955;27;20047;-47
2023/05/05 11:08:35;;;;;;;0.20;0.20;;;;;;;19.90;45.97;101213.97;5100192;27;20047;-48
2023/05/05 11:11:01;;;;;;;0.20;0.20;;;;;;;19.89;45.79;101200.44;5087011;27;20047;-46
2023/05/05 11:13:27;;;;;;;0.35;0.35;;;;;;;19.90;46.14;101216.72;5082079;27;20439;-44
2023/05/05 11:15:54;;;;;;;0.20;0.20;;;;;;;19.89;45.94;101211.50;5115818;27;20043;-44
2023/05/05 11:18:43;;;;;;;0.20;0.20;;;;;;;19.91;45.77;101223.09;5079793;27;20074;-45
2023/05/05 11:21:15;;;;;;;0.20;0.20;;;;;;;19.89;46.03;101211.50;5101400;27;20111;-47
2023/05/05 11:23:46;;;;;;;0.20;0.20;;;;;;;19.97;49.92;101221.97;5104089;27;20065;-51
2023/05/05 11:26:13;;;;;;;0.20;0.20;;;;;;;19.97;47.54;101222.81;5114309;27;20385;-46
2023/05/05 11:28:59;;;;;;;0.20;0.20;;;;;;;19.95;46.97;101218.69;5119213;27;20050;-48
2023/05/05 11:31:25;;;;;;;0.20;0.20;;;;;;;19.93;46.98;101218.13;5106500;27;20447;-45